Time,TemperatureF,DewpointF,PressureIn,WindDirection,WindDirectionDegrees,WindSpeedMPH,WindSpeedGustMPH,Humidity,HourlyPrecipIn,Conditions,Clouds,dailyrainin,SoftwareType,DateUTC
2013-02-19 00:09:00,64.5,63.0,29.95,SW,235,8.0,13.0,94,0.48,,,0.00,weatherlink.com 1.10,2013-02-19 06:09:00,
2013-02-19 00:24:00,63.4,61.0,29.95,SW,221,6.0,8.0,93,0.36,,,0.00,weatherlink.com 1.10,2013-02-19 06:24:00,
2013-02-19 00:39:00,62.9,61.0,29.95,WSW,241,7.0,9.0,93,0.01,,,0.00,weatherlink.com 1.10,2013-02-19 06:39:00,
2013-02-19 00:54:00,63.1,61.0,29.97,WSW,248,8.0,20.0,94,0.03,,,0.03,weatherlink.com 1.10,2013-02-19 06:54:00,
2013-02-19 01:09:00,63.2,62.0,29.98,West,267,5.0,16.0,95,0.04,,,0.04,weatherlink.com 1.10,2013-02-19 07:09:00,
2013-02-19 01:24:00,62.8,61.0,29.98,WSW,257,6.0,10.0,95,0.04,,,0.04,weatherlink.com 1.10,2013-02-19 07:24:00,
2013-02-19 01:39:00,62.1,61.0,29.99,West,273,6.0,9.0,95,0.06,,,0.06,weatherlink.com 1.10,2013-02-19 07:39:00,
2013-02-19 01:54:00,61.3,60.0,29.99,WNW,294,3.0,9.0,94,0.02,,,0.06,weatherlink.com 1.10,2013-02-19 07:54:00,
2013-02-19 02:09:00,60.7,59.0,30.00,WNW,296,5.0,9.0,94,0.02,,,0.06,weatherlink.com 1.10,2013-02-19 08:09:00,
2013-02-19 02:25:00,60.3,59.0,30.00,NW,311,5.0,8.0,94,0.01,,,0.06,weatherlink.com 1.10,2013-02-19 08:25:00,
2013-02-19 02:40:00,59.7,58.0,30.00,NW,309,2.0,10.0,94,0.00,,,0.06,weatherlink.com 1.10,2013-02-19 08:40:00,
2013-02-19 02:55:00,59.3,58.0,30.01,NW,314,3.0,8.0,94,0.00,,,0.06,weatherlink.com 1.10,2013-02-19 08:55:00,
2013-02-19 03:10:00,58.3,56.0,30.01,NNW,341,4.0,12.0,90,0.00,,,0.06,weatherlink.com 1.10,2013-02-19 09:10:00,
2013-02-19 03:25:00,56.9,53.0,30.02,NNW,342,10.0,10.0,85,0.00,,,0.06,weatherlink.com 1.10,2013-02-19 09:25:00,
2013-02-19 03:40:00,56.2,52.0,30.03,NNW,328,6.0,9.0,85,0.00,,,0.06,weatherlink.com 1.10,2013-02-19 09:40:00,
2013-02-19 03:55:00,55.6,51.0,30.04,North,5,4.0,8.0,85,0.00,,,0.06,weatherlink.com 1.10,2013-02-19 09:55:00,
2013-02-19 04:10:00,55.1,51.0,30.04,North,349,3.0,10.0,85,0.00,,,0.06,weatherlink.com 1.10,2013-02-19 10:10:00,
2013-02-19 04:25:00,54.6,51.0,30.05,NNW,338,6.0,9.0,86,0.00,,,0.06,weatherlink.com 1.10,2013-02-19 10:25:00,
2013-02-19 04:40:00,54.2,51.0,30.06,NNW,330,1.0,9.0,87,0.00,,,0.06,weatherlink.com 1.10,2013-02-19 10:40:00,
2013-02-19 04:55:00,53.8,50.0,30.06,North,360,2.0,9.0,87,0.00,,,0.06,weatherlink.com 1.10,2013-02-19 10:55:00,
2013-02-19 05:10:00,53.3,49.0,30.07,NNW,347,3.0,8.0,86,0.00,,,0.06,weatherlink.com 1.10,2013-02-19 11:10:00,
2013-02-19 05:25:00,52.5,48.0,30.08,NNW,341,3.0,11.0,83,0.00,,,0.06,weatherlink.com 1.10,2013-02-19 11:25:00,
2013-02-19 05:40:00,51.9,47.0,30.09,WNW,297,2.0,7.0,83,0.00,,,0.06,weatherlink.com 1.10,2013-02-19 11:40:00,
2013-02-19 05:55:00,51.2,47.0,30.11,NNW,348,4.0,5.0,84,0.00,,,0.06,weatherlink.com 1.10,2013-02-19 11:55:00,
2013-02-19 06:10:00,50.6,46.0,30.11,North,355,2.0,5.0,85,0.00,,,0.06,weatherlink.com 1.10,2013-02-19 12:10:00,
2013-02-19 06:25:00,50.4,46.0,30.12,North,360,3.0,7.0,85,0.00,,,0.06,weatherlink.com 1.10,2013-02-19 12:25:00,
2013-02-19 06:40:00,50.3,45.0,30.12,North,355,8.0,8.0,83,0.00,,,0.06,weatherlink.com 1.10,2013-02-19 12:40:00,
2013-02-19 06:56:00,50.2,45.0,30.14,North,360,2.0,6.0,83,0.00,,,0.06,weatherlink.com 1.10,2013-02-19 12:56:00,
2013-02-19 07:11:00,50.2,46.0,30.14,North,355,2.0,4.0,84,0.00,,,0.06,weatherlink.com 1.10,2013-02-19 13:11:00,
2013-02-19 07:26:00,50.8,46.0,30.14,NNW,334,0.0,6.0,84,0.00,,,0.06,weatherlink.com 1.10,2013-02-19 13:26:00,
2013-02-19 07:41:00,51.8,47.0,30.15,NNE,17,2.0,5.0,83,0.00,,,0.06,weatherlink.com 1.10,2013-02-19 13:41:00,
2013-02-19 07:56:00,52.8,47.0,30.16,NNW,342,4.0,8.0,80,0.00,,,0.06,weatherlink.com 1.10,2013-02-19 13:56:00,
2013-02-19 08:11:00,53.5,47.0,30.16,North,355,2.0,11.0,78,0.00,,,0.06,weatherlink.com 1.10,2013-02-19 14:11:00,
2013-02-19 08:26:00,53.6,46.0,30.17,NNW,343,8.0,10.0,75,0.00,,,0.06,weatherlink.com 1.10,2013-02-19 14:26:00,
2013-02-19 08:41:00,53.9,46.0,30.18,NNE,24,2.0,14.0,75,0.00,,,0.06,weatherlink.com 1.10,2013-02-19 14:41:00,
2013-02-19 08:56:00,54.9,46.0,30.18,North,355,5.0,15.0,72,0.00,,,0.06,weatherlink.com 1.10,2013-02-19 14:56:00,
2013-02-19 09:11:00,55.6,47.0,30.19,NE,40,5.0,10.0,72,0.00,,,0.06,weatherlink.com 1.10,2013-02-19 15:11:00,
2013-02-19 09:26:00,56.1,47.0,30.20,NNE,26,4.0,10.0,72,0.00,,,0.06,weatherlink.com 1.10,2013-02-19 15:26:00,
2013-02-19 09:41:00,56.2,46.0,30.20,ENE,67,7.0,12.0,68,0.00,,,0.06,weatherlink.com 1.10,2013-02-19 15:41:00,
2013-02-19 09:56:00,57.3,47.0,30.21,North,355,5.0,12.0,68,0.00,,,0.06,weatherlink.com 1.10,2013-02-19 15:56:00,
2013-02-19 10:11:00,57.9,46.0,30.22,NNE,32,5.0,13.0,64,0.00,,,0.06,weatherlink.com 1.10,2013-02-19 16:11:00,
2013-02-19 10:26:00,58.3,46.0,30.22,NE,41,7.0,10.0,63,0.00,,,0.06,weatherlink.com 1.10,2013-02-19 16:26:00,
2013-02-19 10:41:00,58.8,46.0,30.23,NNE,30,5.0,14.0,63,0.00,,,0.06,weatherlink.com 1.10,2013-02-19 16:41:00,
2013-02-19 10:56:00,60.1,47.0,30.22,North,5,7.0,10.0,63,0.00,,,0.06,weatherlink.com 1.10,2013-02-19 16:56:00,
2013-02-19 11:11:00,60.2,46.0,30.22,North,355,5.0,10.0,59,0.00,,,0.06,weatherlink.com 1.10,2013-02-19 17:11:00,
2013-02-19 11:26:00,60.9,46.0,30.22,NNE,16,3.0,10.0,59,0.00,,,0.06,weatherlink.com 1.10,2013-02-19 17:26:00,
2013-02-19 11:41:00,61.8,45.0,30.21,NNE,12,8.0,13.0,55,0.00,,,0.06,weatherlink.com 1.10,2013-02-19 17:41:00,
2013-02-19 11:56:00,62.3,44.0,30.20,North,355,6.0,11.0,52,0.00,,,0.06,weatherlink.com 1.10,2013-02-19 17:56:00,
2013-02-19 12:11:00,62.9,45.0,30.19,NNE,19,5.0,14.0,52,0.00,,,0.06,weatherlink.com 1.10,2013-02-19 18:11:00,
2013-02-19 12:26:00,63.5,42.0,30.19,North,9,7.0,13.0,45,0.00,,,0.06,weatherlink.com 1.10,2013-02-19 18:26:00,
2013-02-19 12:41:00,63.3,42.0,30.19,NNE,24,6.0,11.0,46,0.00,,,0.06,weatherlink.com 1.10,2013-02-19 18:41:00,
2013-02-19 12:56:00,64.7,43.0,30.19,NNE,17,5.0,11.0,46,0.00,,,0.06,weatherlink.com 1.10,2013-02-19 18:56:00,
2013-02-19 13:11:00,65.2,42.0,30.18,NNE,33,5.0,11.0,43,0.00,,,0.06,weatherlink.com 1.10,2013-02-19 19:11:00,
2013-02-19 13:26:00,64.9,38.0,30.19,NE,36,7.0,17.0,37,0.00,,,0.06,weatherlink.com 1.10,2013-02-19 19:26:00,
2013-02-19 13:41:00,65.5,41.0,30.18,North,355,7.0,12.0,41,0.00,,,0.06,weatherlink.com 1.10,2013-02-19 19:41:00,
2013-02-19 13:56:00,65.3,40.0,30.18,NNE,14,3.0,13.0,40,0.00,,,0.06,weatherlink.com 1.10,2013-02-19 19:56:00,
2013-02-19 14:11:00,64.5,36.0,30.18,North,11,8.0,16.0,35,0.00,,,0.06,weatherlink.com 1.10,2013-02-19 20:11:00,
2013-02-19 14:26:00,64.8,38.0,30.18,NNE,19,3.0,11.0,37,0.00,,,0.06,weatherlink.com 1.10,2013-02-19 20:26:00,
2013-02-19 14:41:00,65.0,40.0,30.18,NNE,24,6.0,15.0,40,0.00,,,0.06,weatherlink.com 1.10,2013-02-19 20:41:00,
2013-02-19 14:56:00,64.8,40.0,30.17,NNE,15,5.0,14.0,40,0.00,,,0.06,weatherlink.com 1.10,2013-02-19 20:56:00,
2013-02-19 15:11:00,65.1,40.0,30.16,NNW,346,12.0,12.0,40,0.00,,,0.06,weatherlink.com 1.10,2013-02-19 21:11:00,
2013-02-19 15:26:00,65.0,38.0,30.16,North,355,9.0,13.0,37,0.00,,,0.06,weatherlink.com 1.10,2013-02-19 21:26:00,
2013-02-19 15:41:00,65.3,39.0,30.16,North,360,6.0,10.0,38,0.00,,,0.06,weatherlink.com 1.10,2013-02-19 21:41:00,
2013-02-19 15:56:00,64.7,35.0,30.16,NNE,29,8.0,14.0,33,0.00,,,0.06,weatherlink.com 1.10,2013-02-19 21:56:00,
2013-02-19 16:11:00,64.4,33.0,30.15,North,355,5.0,12.0,31,0.00,,,0.06,weatherlink.com 1.10,2013-02-19 22:11:00,
2013-02-19 16:26:00,64.4,35.0,30.15,NNE,28,7.0,9.0,33,0.00,,,0.06,weatherlink.com 1.10,2013-02-19 22:26:00,
2013-02-19 16:41:00,63.9,36.0,30.15,NE,41,4.0,10.0,36,0.00,,,0.06,weatherlink.com 1.10,2013-02-19 22:41:00,
2013-02-19 16:56:00,63.4,34.0,30.15,NNE,21,2.0,10.0,34,0.00,,,0.06,weatherlink.com 1.10,2013-02-19 22:56:00,
2013-02-19 17:11:00,62.5,34.0,30.16,NNE,27,5.0,9.0,34,0.00,,,0.06,weatherlink.com 1.10,2013-02-19 23:11:00,
2013-02-19 17:26:00,61.4,33.0,30.15,NE,44,3.0,7.0,34,0.00,,,0.06,weatherlink.com 1.10,2013-02-19 23:26:00,
2013-02-19 17:41:00,60.4,35.0,30.15,NNE,33,1.0,5.0,39,0.00,,,0.06,weatherlink.com 1.10,2013-02-19 23:41:00,
2013-02-19 17:56:00,58.6,35.0,30.16,NNE,18,3.0,5.0,41,0.00,,,0.06,weatherlink.com 1.10,2013-02-19 23:56:00,
2013-02-19 18:11:00,56.9,35.0,30.17,North,360,1.0,3.0,44,0.00,,,0.06,weatherlink.com 1.10,2013-02-20 00:11:00,
2013-02-19 18:26:00,55.4,36.0,30.17,North,360,0.0,2.0,48,0.00,,,0.06,weatherlink.com 1.10,2013-02-20 00:26:00,
2013-02-19 18:41:00,54.4,36.0,30.16,NE,40,0.0,4.0,51,0.00,,,0.06,weatherlink.com 1.10,2013-02-20 00:41:00,
2013-02-19 18:56:00,53.9,37.0,30.17,NE,49,2.0,4.0,54,0.00,,,0.06,weatherlink.com 1.10,2013-02-20 00:56:00,
2013-02-19 19:11:00,53.4,38.0,30.17,NE,44,1.0,4.0,57,0.00,,,0.06,weatherlink.com 1.10,2013-02-20 01:11:00,
2013-02-19 19:26:00,52.6,39.0,30.18,NE,41,0.0,3.0,60,0.00,,,0.06,weatherlink.com 1.10,2013-02-20 01:26:00,
2013-02-19 19:41:00,51.9,40.0,30.19,NE,41,0.0,1.0,63,0.00,,,0.06,weatherlink.com 1.10,2013-02-20 01:41:00,
2013-02-19 19:56:00,51.4,40.0,30.19,NE,41,0.0,2.0,66,0.00,,,0.06,weatherlink.com 1.10,2013-02-20 01:56:00,
2013-02-19 20:11:00,50.8,41.0,30.19,NE,41,0.0,0.0,69,0.00,,,0.06,weatherlink.com 1.10,2013-02-20 02:11:00,
2013-02-19 20:26:00,50.1,41.0,30.18,NE,41,0.0,1.0,70,0.00,,,0.06,weatherlink.com 1.10,2013-02-20 02:26:00,
2013-02-19 20:41:00,49.5,41.0,30.19,NE,41,0.0,0.0,72,0.00,,,0.06,weatherlink.com 1.10,2013-02-20 02:41:00,
2013-02-19 20:56:00,49.2,41.0,30.19,NE,41,1.0,2.0,72,0.00,,,0.06,weatherlink.com 1.10,2013-02-20 02:56:00,
2013-02-19 21:12:00,49.0,40.0,30.19,NE,35,2.0,2.0,70,0.00,,,0.06,weatherlink.com 1.10,2013-02-20 03:12:00,
2013-02-19 21:27:00,49.1,39.0,30.20,NNE,28,1.0,3.0,68,0.00,,,0.06,weatherlink.com 1.10,2013-02-20 03:27:00,
2013-02-19 21:42:00,49.1,38.0,30.20,NE,39,4.0,5.0,67,0.00,,,0.06,weatherlink.com 1.10,2013-02-20 03:42:00,
2013-02-19 21:57:00,49.0,38.0,30.20,NE,35,2.0,4.0,66,0.00,,,0.06,weatherlink.com 1.10,2013-02-20 03:57:00,
2013-02-19 22:12:00,48.9,38.0,30.19,NE,42,2.0,4.0,66,0.00,,,0.06,weatherlink.com 1.10,2013-02-20 04:12:00,
2013-02-19 22:27:00,48.5,38.0,30.20,NE,38,1.0,4.0,68,0.00,,,0.06,weatherlink.com 1.10,2013-02-20 04:27:00,
2013-02-19 22:42:00,48.1,38.0,30.20,ENE,63,1.0,4.0,68,0.00,,,0.06,weatherlink.com 1.10,2013-02-20 04:42:00,
2013-02-19 22:57:00,47.8,38.0,30.20,NE,44,1.0,3.0,68,0.00,,,0.06,weatherlink.com 1.10,2013-02-20 04:57:00,
2013-02-19 23:12:00,47.6,38.0,30.19,ENE,59,1.0,5.0,69,0.00,,,0.06,weatherlink.com 1.10,2013-02-20 05:12:00,
2013-02-19 23:27:00,47.6,38.0,30.18,NNE,30,2.0,6.0,70,0.00,,,0.06,weatherlink.com 1.10,2013-02-20 05:27:00,
2013-02-19 23:42:00,47.2,38.0,30.18,ENE,59,2.0,4.0,70,0.00,,,0.06,weatherlink.com 1.10,2013-02-20 05:42:00,
2013-02-19 23:57:00,47.2,37.0,30.18,NE,43,2.0,5.0,69,0.00,,,0.06,weatherlink.com 1.10,2013-02-20 05:57:00,